createdAt,value
2023-11-09T00:01:53.637Z,1.70
2023-11-09T00:04:20.605Z,3.20
2023-11-09T00:06:50.141Z,2.43
2023-11-09T00:09:17.053Z,2.00
2023-11-09T00:11:43.938Z,2.53
2023-11-09T00:14:10.846Z,2.47
2023-11-09T00:16:37.770Z,2.27
2023-11-09T00:19:04.757Z,2.37
2023-11-09T00:21:31.725Z,2.30
2023-11-09T00:24:01.272Z,3.63
2023-11-09T00:26:28.232Z,3.77
2023-11-09T00:28:55.108Z,2.63
2023-11-09T00:31:22.005Z,2.77
2023-11-09T00:33:48.962Z,2.77
2023-11-09T00:36:15.914Z,1.97
2023-11-09T00:38:42.778Z,2.80
2023-11-09T00:41:12.318Z,2.53
2023-11-09T00:43:39.208Z,1.80
2023-11-09T00:46:06.104Z,2.03
2023-11-09T00:48:33.012Z,2.37
2023-11-09T00:50:59.908Z,2.10
2023-11-09T00:53:26.791Z,2.60
2023-11-09T00:55:53.687Z,2.67
2023-11-09T00:58:23.274Z,1.80
2023-11-09T01:00:50.324Z,2.10
2023-11-09T01:03:17.324Z,2.30
2023-11-09T01:05:44.240Z,2.47
2023-11-09T01:08:11.114Z,2.43
2023-11-09T01:10:37.975Z,2.10
2023-11-09T01:13:04.905Z,1.80
2023-11-09T01:15:34.377Z,2.27
2023-11-09T01:18:02.327Z,4.77
2023-11-09T01:20:29.237Z,4.30
2023-11-09T01:22:56.136Z,2.67
2023-11-09T01:25:23.046Z,2.90
2023-11-09T01:27:49.934Z,4.20
2023-11-09T01:30:17.051Z,3.00
2023-11-09T01:32:46.619Z,2.40
2023-11-09T01:35:13.636Z,3.93
2023-11-09T01:37:40.539Z,3.73
2023-11-09T01:40:08.373Z,2.87
2023-11-09T01:42:35.264Z,2.67
2023-11-09T01:45:02.415Z,2.07
2023-11-09T01:47:29.583Z,1.70
2023-11-09T01:49:59.494Z,2.13
2023-11-09T01:52:27.724Z,1.90
2023-11-09T01:54:55.199Z,1.63
2023-11-09T01:57:22.218Z,2.13
2023-11-09T01:59:51.728Z,2.27
2023-11-09T02:02:19.011Z,2.50
2023-11-09T02:04:46.230Z,2.83
2023-11-09T02:07:17.595Z,5.00
2023-11-09T02:09:44.607Z,2.60
2023-11-09T02:12:11.608Z,1.57
2023-11-09T02:14:38.563Z,2.47
2023-11-09T02:17:06.626Z,2.33
2023-11-09T02:19:33.639Z,2.03
2023-11-09T02:22:01.772Z,2.20
2023-11-09T02:24:31.797Z,2.33
2023-11-09T02:26:58.675Z,2.13
2023-11-09T02:29:25.581Z,2.17
2023-11-09T02:31:52.621Z,1.90
2023-11-09T02:34:22.203Z,2.33
2023-11-09T02:36:49.205Z,1.50
2023-11-09T02:39:16.093Z,1.77
2023-11-09T02:41:45.601Z,2.00
2023-11-09T02:44:12.497Z,1.47
2023-11-09T02:46:39.443Z,2.17
2023-11-09T02:49:06.371Z,1.60
2023-11-09T02:51:33.348Z,1.63
2023-11-09T02:54:00.227Z,3.87
2023-11-09T02:56:27.144Z,1.80
2023-11-09T02:58:56.642Z,3.37
2023-11-09T03:01:23.609Z,1.90
2023-11-09T03:03:50.671Z,8.40
2023-11-09T03:06:17.549Z,1.80
2023-11-09T03:08:44.457Z,4.17
2023-11-09T03:11:11.336Z,2.50
2023-11-09T03:13:38.208Z,1.70
2023-11-09T03:16:08.291Z,1.87
2023-11-09T03:18:35.196Z,2.63
2023-11-09T03:21:02.078Z,3.27
2023-11-09T03:23:29.062Z,1.60
2023-11-09T03:25:55.961Z,1.90
2023-11-09T03:28:22.911Z,3.03
2023-11-09T03:30:49.845Z,1.60
2023-11-09T03:33:19.353Z,2.60
2023-11-09T03:35:46.236Z,2.67
2023-11-09T03:38:13.250Z,2.10
2023-11-09T03:40:40.132Z,2.63
2023-11-09T03:43:07.049Z,2.13
2023-11-09T03:45:33.944Z,2.27
2023-11-09T03:48:00.946Z,2.37
2023-11-09T03:50:30.494Z,2.23
2023-11-09T03:52:57.412Z,2.80
2023-11-09T03:55:24.293Z,1.80
2023-11-09T03:57:51.194Z,1.83
2023-11-09T04:00:18.229Z,1.80
2023-11-09T04:02:45.598Z,1.87
2023-11-09T04:05:13.765Z,2.33
2023-11-09T04:07:45.454Z,1.57
2023-11-09T04:10:13.564Z,1.93
2023-11-09T04:12:40.898Z,1.73
2023-11-09T04:15:08.980Z,1.53
2023-11-09T04:17:35.993Z,2.43
2023-11-09T04:20:03.114Z,2.37
2023-11-09T04:22:30.030Z,1.93
2023-11-09T04:24:59.572Z,1.63
2023-11-09T04:27:26.464Z,2.23
2023-11-09T04:29:53.367Z,1.70
2023-11-09T04:32:20.266Z,1.53
2023-11-09T04:34:47.534Z,1.73
2023-11-09T04:37:14.875Z,1.70
2023-11-09T04:39:42.046Z,1.63
2023-11-09T04:42:11.522Z,2.00
2023-11-09T04:44:38.419Z,2.60
2023-11-09T04:47:06.071Z,2.07
2023-11-09T04:49:33.066Z,2.63
2023-11-09T04:52:00.030Z,2.43
2023-11-09T04:54:27.210Z,5.27
2023-11-09T04:56:54.251Z,1.97
2023-11-09T04:59:24.031Z,2.13
2023-11-09T05:01:51.703Z,1.87
2023-11-09T05:04:18.569Z,1.70
2023-11-09T05:06:45.845Z,2.10
2023-11-09T05:09:12.748Z,1.93
2023-11-09T05:11:39.632Z,2.40
2023-11-09T05:14:06.524Z,1.80
2023-11-09T05:16:38.398Z,2.30
2023-11-09T05:19:05.497Z,1.60
2023-11-09T05:21:32.448Z,2.30
2023-11-09T05:23:59.392Z,2.17
2023-11-09T05:26:26.712Z,1.70
2023-11-09T05:28:53.612Z,1.93
2023-11-09T05:31:20.526Z,1.93
2023-11-09T05:33:50.049Z,1.73
2023-11-09T05:36:16.942Z,3.13
2023-11-09T05:38:43.893Z,1.77
2023-11-09T05:41:10.773Z,2.20
2023-11-09T05:43:37.736Z,1.77
2023-11-09T05:46:04.923Z,1.50
2023-11-09T05:48:33.129Z,1.70
2023-11-09T05:51:02.695Z,1.87
2023-11-09T05:53:29.678Z,2.43
2023-11-09T05:55:56.645Z,1.70
2023-11-09T05:58:23.662Z,2.10
2023-11-09T06:00:50.684Z,2.47
2023-11-09T06:03:17.614Z,1.50
2023-11-09T06:05:44.572Z,1.60
2023-11-09T06:08:14.113Z,1.57
2023-11-09T06:10:41.054Z,1.23
2023-11-09T06:13:07.973Z,1.50
2023-11-09T06:15:34.971Z,2.17
2023-11-09T06:18:01.941Z,1.50
2023-11-09T06:20:28.898Z,1.60
2023-11-09T06:22:55.761Z,1.63
2023-11-09T06:25:25.569Z,1.30
2023-11-09T06:27:52.481Z,1.80
2023-11-09T06:30:19.382Z,1.80
2023-11-09T06:32:46.315Z,3.27
2023-11-09T06:35:13.268Z,1.70
2023-11-09T06:37:40.608Z,1.60
2023-11-09T06:40:09.054Z,3.23
2023-11-09T06:42:38.538Z,2.73
2023-11-09T06:45:06.557Z,1.97
2023-11-09T06:47:33.599Z,1.60
2023-11-09T06:50:00.499Z,1.63
2023-11-09T06:52:27.420Z,1.47
2023-11-09T06:54:54.302Z,1.20
2023-11-09T06:57:21.300Z,2.07
2023-11-09T06:59:50.765Z,1.43
2023-11-09T07:02:17.679Z,2.23
2023-11-09T07:04:44.719Z,1.60
2023-11-09T07:07:11.811Z,1.47
2023-11-09T07:09:38.740Z,2.50
2023-11-09T07:12:06.395Z,1.30
2023-11-09T07:14:33.327Z,2.00
2023-11-09T07:17:02.906Z,3.03
2023-11-09T07:19:29.863Z,2.07
2023-11-09T07:21:56.782Z,3.30
2023-11-09T07:24:23.695Z,2.20
2023-11-09T07:26:50.556Z,2.63
2023-11-09T07:29:17.554Z,2.00
2023-11-09T07:31:44.450Z,1.83
2023-11-09T07:34:14.012Z,2.50
2023-11-09T07:36:40.924Z,1.80
2023-11-09T07:39:07.816Z,1.77
2023-11-09T07:41:34.731Z,2.00
2023-11-09T07:44:01.696Z,2.13
2023-11-09T07:46:28.691Z,1.47
2023-11-09T07:48:55.677Z,2.20
2023-11-09T07:51:25.285Z,3.10
2023-11-09T07:53:52.252Z,2.17
2023-11-09T07:56:19.333Z,2.23
2023-11-09T07:58:46.268Z,2.90
2023-11-09T08:01:13.208Z,2.53
2023-11-09T08:03:40.159Z,3.47
2023-11-09T08:06:07.750Z,2.60
2023-11-09T08:08:37.236Z,2.73
2023-11-09T08:11:04.573Z,1.73
2023-11-09T08:13:31.561Z,1.50
2023-11-09T08:15:58.499Z,1.43
2023-11-09T08:18:25.416Z,1.87
2023-11-09T08:20:52.299Z,1.30
2023-11-09T08:23:19.305Z,1.90
2023-11-09T08:25:48.808Z,1.40
2023-11-09T08:28:15.827Z,2.17
2023-11-09T08:30:42.693Z,2.50
2023-11-09T08:33:09.846Z,2.83
2023-11-09T08:35:36.840Z,2.27
2023-11-09T08:38:03.764Z,2.80
2023-11-09T08:40:30.828Z,4.70
2023-11-09T08:43:00.585Z,4.20
2023-11-09T08:45:27.484Z,5.27
2023-11-09T08:47:54.451Z,7.20
2023-11-09T08:50:21.706Z,6.53
2023-11-09T08:52:49.175Z,6.53
2023-11-09T08:55:16.106Z,6.70
2023-11-09T08:57:43.166Z,8.13
2023-11-09T09:00:13.653Z,10.60
2023-11-09T09:02:41.023Z,6.17
2023-11-09T09:05:08.723Z,3.73
2023-11-09T09:07:35.620Z,2.53
2023-11-09T09:10:02.603Z,2.00
2023-11-09T09:12:29.476Z,2.30
2023-11-09T09:14:56.335Z,2.73
2023-11-09T09:17:25.814Z,2.23
2023-11-09T09:19:52.757Z,2.30
2023-11-09T09:22:19.658Z,2.13
2023-11-09T09:24:46.530Z,1.50
2023-11-09T09:27:13.452Z,1.73
2023-11-09T09:29:40.397Z,1.30
2023-11-09T09:32:07.887Z,1.40
2023-11-09T09:34:40.291Z,1.70
2023-11-09T09:37:07.203Z,1.30
2023-11-09T09:39:34.059Z,1.67
2023-11-09T09:42:00.978Z,1.20
2023-11-09T09:44:28.113Z,2.07
2023-11-09T09:46:57.693Z,2.57
2023-11-09T09:49:24.637Z,1.37
2023-11-09T09:51:56.768Z,2.37
2023-11-09T09:54:24.271Z,1.83
2023-11-09T09:56:51.986Z,1.63
2023-11-09T09:59:19.042Z,6.63
2023-11-09T10:01:49.599Z,5.07
2023-11-09T10:04:17.259Z,2.93
2023-11-09T10:06:44.227Z,5.07
2023-11-09T10:09:13.894Z,2.53
2023-11-09T10:11:40.764Z,2.47
2023-11-09T10:14:07.688Z,2.20
2023-11-09T10:16:34.923Z,1.80
2023-11-09T10:19:02.324Z,1.20
2023-11-09T10:21:29.545Z,1.87
2023-11-09T10:23:56.455Z,1.30
2023-11-09T10:26:36.521Z,1.67
2023-11-09T10:29:03.463Z,1.30
2023-11-09T10:31:32.126Z,1.30
2023-11-09T10:33:59.159Z,1.30
2023-11-09T10:36:26.564Z,1.80
2023-11-09T10:38:53.782Z,3.07
2023-11-09T10:41:53.318Z,3.80
2023-11-09T10:44:10.968Z,3.10
2023-11-09T10:46:39.815Z,3.50
2023-11-09T10:49:07.212Z,2.57
2023-11-09T10:51:37.480Z,2.50
2023-11-09T10:54:04.763Z,2.30
2023-11-09T10:56:32.741Z,1.90
2023-11-09T10:58:59.662Z,1.87
2023-11-09T11:01:30.892Z,3.10
2023-11-09T11:03:59.998Z,2.30
2023-11-09T11:06:31.206Z,4.30
2023-11-09T11:09:05.604Z,1.50
2023-11-09T11:11:34.559Z,1.37
2023-11-09T11:14:04.262Z,2.63
2023-11-09T11:16:52.762Z,1.30
2023-11-09T11:19:40.887Z,1.53
2023-11-09T11:22:26.533Z,1.50
2023-11-09T11:25:11.562Z,1.50
2023-11-09T11:27:54.724Z,1.20
2023-11-09T11:30:25.807Z,0.93
2023-11-09T11:32:57.381Z,1.30
2023-11-09T11:35:37.879Z,1.40
2023-11-09T11:38:06.767Z,1.23
2023-11-09T11:40:34.240Z,1.27
2023-11-09T11:43:01.189Z,1.87
2023-11-09T11:45:29.514Z,0.80
2023-11-09T11:48:01.864Z,0.83
2023-11-09T11:50:30.973Z,0.73
2023-11-09T11:53:02.110Z,1.13
2023-11-09T11:55:33.758Z,1.43
2023-11-09T11:58:01.792Z,1.53
2023-11-09T12:00:37.720Z,1.43
2023-11-09T12:03:08.750Z,1.17
2023-11-09T12:05:35.784Z,1.10
2023-11-09T12:08:03.862Z,0.80
2023-11-09T12:10:31.265Z,1.60
2023-11-09T12:12:58.301Z,2.67
2023-11-09T12:15:25.409Z,2.37
2023-11-09T12:17:52.372Z,1.97
2023-11-09T12:20:21.919Z,2.07
2023-11-09T12:22:48.882Z,1.60
2023-11-09T12:25:15.816Z,1.73
2023-11-09T12:27:45.226Z,2.10
2023-11-09T12:30:13.056Z,2.07
2023-11-09T12:32:40.028Z,4.57
2023-11-09T12:35:14.446Z,1.17
2023-11-09T12:37:44.161Z,1.20
2023-11-09T12:40:11.912Z,1.67
2023-11-09T12:42:39.159Z,1.80
2023-11-09T12:45:11.006Z,1.50
2023-11-09T12:47:37.923Z,0.83
2023-11-09T12:50:07.430Z,1.60
2023-11-09T12:52:34.494Z,1.47
2023-11-09T12:55:04.639Z,1.80
2023-11-09T12:57:31.513Z,1.43
2023-11-09T12:59:58.441Z,0.83
2023-11-09T13:02:25.350Z,1.50
2023-11-09T13:04:52.315Z,1.30
2023-11-09T13:07:19.680Z,2.13
2023-11-09T13:09:46.598Z,2.70
2023-11-09T13:12:16.090Z,2.53
2023-11-09T13:14:43.537Z,3.60
2023-11-09T13:17:10.432Z,4.00
2023-11-09T13:19:37.396Z,3.53
2023-11-09T13:22:04.741Z,5.03
2023-11-09T13:24:33.566Z,3.53
2023-11-09T13:27:01.817Z,1.67
2023-11-09T13:29:31.340Z,1.57
2023-11-09T13:31:58.546Z,1.70
2023-11-09T13:34:25.653Z,3.23
2023-11-09T13:36:52.553Z,3.37
2023-11-09T13:39:19.478Z,3.97
2023-11-09T13:41:46.415Z,2.37
2023-11-09T13:44:13.926Z,2.40
2023-11-09T13:46:44.828Z,2.87
2023-11-09T13:49:13.255Z,3.30
2023-11-09T13:51:40.172Z,2.40
2023-11-09T13:54:07.115Z,2.73
2023-11-09T13:56:33.997Z,2.90
2023-11-09T13:59:01.127Z,4.53
2023-11-09T14:01:28.112Z,6.67
2023-11-09T14:03:57.993Z,6.13
2023-11-09T14:06:24.997Z,6.50
2023-11-09T14:08:51.995Z,3.47
2023-11-09T14:11:18.885Z,2.57
2023-11-09T14:13:45.823Z,2.00
2023-11-09T14:16:12.730Z,2.80
2023-11-09T14:18:39.768Z,2.90
2023-11-09T14:21:09.254Z,1.50
2023-11-09T14:23:36.170Z,2.07
2023-11-09T14:26:03.169Z,15.43
2023-11-09T14:28:30.096Z,3.33
2023-11-09T14:30:57.003Z,3.17
2023-11-09T14:33:23.915Z,1.30
2023-11-09T14:35:50.778Z,1.20
2023-11-09T14:38:20.298Z,3.50
2023-11-09T14:40:48.972Z,1.80
2023-11-09T14:43:16.640Z,1.30
2023-11-09T14:45:45.766Z,1.00
2023-11-09T14:48:13.078Z,2.07
2023-11-09T14:50:40.358Z,1.30
2023-11-09T14:53:07.519Z,0.80
2023-11-09T14:55:37.763Z,1.23
2023-11-09T14:58:05.600Z,1.17
2023-11-09T15:00:32.980Z,1.87
2023-11-09T15:02:59.970Z,1.13
2023-11-09T15:05:26.958Z,1.47
2023-11-09T15:07:54.115Z,0.70
2023-11-09T15:10:21.470Z,2.83
2023-11-09T15:12:50.976Z,0.80
2023-11-09T15:15:18.113Z,1.73
2023-11-09T15:17:45.071Z,1.23
2023-11-09T15:20:12.344Z,0.93
2023-11-09T15:22:39.288Z,1.10
2023-11-09T15:25:07.024Z,0.67
2023-11-09T15:27:33.900Z,2.57
2023-11-09T15:30:03.879Z,2.50
2023-11-09T15:32:30.859Z,3.60
2023-11-09T15:34:57.806Z,3.53
2023-11-09T15:37:24.753Z,4.20
2023-11-09T15:40:12.844Z,4.10
2023-11-09T15:42:38.544Z,1.30
2023-11-09T15:45:08.766Z,2.63
2023-11-09T15:47:35.714Z,2.40
2023-11-09T15:50:02.613Z,6.83
2023-11-09T15:52:29.532Z,4.53
2023-11-09T15:54:56.445Z,3.70
2023-11-09T15:57:23.336Z,4.33
2023-11-09T15:59:50.204Z,2.40
2023-11-09T16:02:19.801Z,5.30
2023-11-09T16:04:46.853Z,3.83
2023-11-09T16:07:13.850Z,4.60
2023-11-09T16:09:43.253Z,2.47
2023-11-09T16:12:16.512Z,2.10
2023-11-09T16:14:43.696Z,3.77
2023-11-09T16:17:10.634Z,4.37
2023-11-09T16:19:40.121Z,6.93
2023-11-09T16:22:07.061Z,3.60
2023-11-09T16:24:33.963Z,9.67
2023-11-09T16:27:00.951Z,3.63
2023-11-09T16:29:27.971Z,3.10
2023-11-09T16:31:55.204Z,5.33
2023-11-09T16:34:22.211Z,3.07
2023-11-09T16:36:51.718Z,3.00
2023-11-09T16:39:18.809Z,4.10
2023-11-09T16:41:45.956Z,2.57
2023-11-09T16:44:13.013Z,2.37
2023-11-09T16:46:39.945Z,3.43
2023-11-09T16:49:07.399Z,2.40
2023-11-09T16:51:34.425Z,1.27
2023-11-09T16:54:04.050Z,2.37
2023-11-09T16:56:32.759Z,2.63
2023-11-09T16:58:59.754Z,3.30
2023-11-09T17:01:26.833Z,2.30
2023-11-09T17:03:53.970Z,4.23
2023-11-09T17:06:20.892Z,2.33
2023-11-09T17:08:47.801Z,2.40
2023-11-09T17:11:17.372Z,4.30
2023-11-09T17:13:44.269Z,2.00
2023-11-09T17:16:11.209Z,1.60
2023-11-09T17:18:38.169Z,4.30
2023-11-09T17:21:05.903Z,2.10
2023-11-09T17:23:32.976Z,3.20
2023-11-09T17:25:59.894Z,2.43
2023-11-09T17:28:29.394Z,2.17
2023-11-09T17:30:56.280Z,3.07
2023-11-09T17:33:23.231Z,14.73
2023-11-09T17:35:50.214Z,17.77
2023-11-09T17:38:17.135Z,10.27
2023-11-09T17:40:44.088Z,4.47
2023-11-09T17:43:11.011Z,3.10
2023-11-09T17:45:40.487Z,4.43
2023-11-09T17:48:07.458Z,4.30
2023-11-09T17:50:34.322Z,5.20
2023-11-09T17:53:01.295Z,3.83
2023-11-09T17:55:28.240Z,2.80
2023-11-09T17:57:55.138Z,4.10
2023-11-09T18:00:22.095Z,19.57
2023-11-09T18:02:51.614Z,20.70
2023-11-09T18:05:18.782Z,5.40
2023-11-09T18:07:45.705Z,4.97
2023-11-09T18:10:12.984Z,2.57
2023-11-09T18:12:39.883Z,7.43
2023-11-09T18:15:07.841Z,3.20
2023-11-09T18:17:34.768Z,9.00
2023-11-09T18:20:05.033Z,3.37
2023-11-09T18:22:31.940Z,3.57
2023-11-09T18:24:58.961Z,5.80
2023-11-09T18:27:25.931Z,2.77
2023-11-09T18:29:52.814Z,2.80
2023-11-09T18:32:19.814Z,3.47
2023-11-09T18:34:46.779Z,3.10
2023-11-09T18:37:16.343Z,4.23
2023-11-09T18:39:43.234Z,3.70
2023-11-09T18:42:10.121Z,2.83
2023-11-09T18:44:37.010Z,2.00
2023-11-09T18:47:05.889Z,3.83
2023-11-09T18:52:02.569Z,6.83
2023-11-09T18:54:32.072Z,5.13
2023-11-09T18:56:58.979Z,2.53
2023-11-09T18:59:25.830Z,4.57
2023-11-09T19:01:52.750Z,3.77
2023-11-09T19:06:49.486Z,2.73
2023-11-09T19:09:16.459Z,4.50
2023-11-09T19:11:45.941Z,5.67
2023-11-09T19:14:12.855Z,3.67
2023-11-09T19:16:39.805Z,6.43
2023-11-09T19:19:06.796Z,7.17
2023-11-09T19:24:03.796Z,6.20
2023-11-09T19:26:30.829Z,9.57
2023-11-09T19:29:00.318Z,8.77
2023-11-09T19:31:27.234Z,4.47
2023-11-09T19:33:54.118Z,3.53
2023-11-09T19:36:21.028Z,6.50
2023-11-09T19:38:47.906Z,4.13
2023-11-09T19:41:14.817Z,3.90
2023-11-09T19:43:41.677Z,4.43
2023-11-09T19:46:11.194Z,3.60
2023-11-09T19:48:39.158Z,4.70
2023-11-09T19:51:06.224Z,2.93
2023-11-09T19:53:33.129Z,2.77
2023-11-09T19:56:00.039Z,3.33
2023-11-09T19:58:26.915Z,2.80
2023-11-09T20:00:53.793Z,4.50
2023-11-09T20:03:23.356Z,4.40
2023-11-09T20:05:50.326Z,4.23
2023-11-09T20:08:17.239Z,6.87
2023-11-09T20:10:44.091Z,4.67
2023-11-09T20:13:11.018Z,4.67
2023-11-09T20:15:37.929Z,3.40
2023-11-09T20:18:04.937Z,3.17
2023-11-09T20:20:34.593Z,9.17
2023-11-09T20:23:01.514Z,3.20
2023-11-09T20:25:28.387Z,3.23
2023-11-09T20:27:55.329Z,3.60
2023-11-09T20:30:22.318Z,3.67
2023-11-09T20:32:49.343Z,3.67
2023-11-09T20:35:16.422Z,3.43
2023-11-09T20:37:46.273Z,5.27
2023-11-09T20:40:13.631Z,4.23
2023-11-09T20:42:41.546Z,3.27
2023-11-09T20:45:10.144Z,3.23
2023-11-09T20:47:37.368Z,3.23
2023-11-09T20:50:04.776Z,2.60
2023-11-09T20:52:32.146Z,2.77
2023-11-09T20:55:01.737Z,2.80
2023-11-09T20:57:28.649Z,3.27
2023-11-09T20:59:55.544Z,4.20
2023-11-09T21:02:22.445Z,2.03
2023-11-09T21:04:49.297Z,2.10
2023-11-09T21:07:16.243Z,2.67
2023-11-09T21:09:43.198Z,3.10
2023-11-09T21:12:12.745Z,2.90
2023-11-09T21:14:40.471Z,2.00
2023-11-09T21:17:07.435Z,1.93
2023-11-09T21:19:34.316Z,2.23
2023-11-09T21:22:01.236Z,4.20
2023-11-09T21:24:28.198Z,3.27
2023-11-09T21:26:56.917Z,2.37
2023-11-09T21:29:26.580Z,3.83
2023-11-09T21:31:53.516Z,3.33
2023-11-09T21:34:20.488Z,3.10
2023-11-09T21:36:47.457Z,3.47
2023-11-09T21:39:14.462Z,3.17
2023-11-09T21:41:41.708Z,2.30
2023-11-09T21:44:08.613Z,10.27
2023-11-09T21:46:38.151Z,8.83
2023-11-09T21:49:05.078Z,17.87
2023-11-09T21:51:32.000Z,15.33
2023-11-09T21:53:58.878Z,7.33
2023-11-09T21:56:25.785Z,15.73
2023-11-09T21:58:52.636Z,8.27
2023-11-09T22:01:19.528Z,15.80
2023-11-09T22:03:49.080Z,27.90
2023-11-09T22:06:16.026Z,6.70
2023-11-09T22:08:43.087Z,1.80
2023-11-09T22:11:10.203Z,2.13
2023-11-09T22:13:37.183Z,4.23
2023-11-09T22:16:04.467Z,6.23
2023-11-09T22:18:31.336Z,6.00
2023-11-09T22:21:00.857Z,8.60
2023-11-09T22:23:27.728Z,4.63
2023-11-09T22:25:54.645Z,3.83
2023-11-09T22:28:21.521Z,3.10
2023-11-09T22:30:48.572Z,2.47
2023-11-09T22:33:15.545Z,2.17
2023-11-09T22:35:42.484Z,1.10
2023-11-09T22:38:11.970Z,1.80
2023-11-09T22:40:38.829Z,2.53
2023-11-09T22:43:05.752Z,1.43
2023-11-09T22:45:32.649Z,1.80
2023-11-09T22:47:59.607Z,1.43
2023-11-09T22:50:26.501Z,2.67
2023-11-09T22:52:53.392Z,1.20
2023-11-09T22:55:22.857Z,2.70
2023-11-09T22:57:49.752Z,3.10
2023-11-09T23:00:17.524Z,5.07
2023-11-09T23:02:44.479Z,3.10
2023-11-09T23:05:11.480Z,6.10
2023-11-09T23:07:40.028Z,6.53
2023-11-09T23:10:07.633Z,5.83
2023-11-09T23:12:37.147Z,6.27
2023-11-09T23:15:05.021Z,6.97
2023-11-09T23:17:32.019Z,6.87
2023-11-09T23:20:08.054Z,3.73
2023-11-09T23:22:36.976Z,6.77
2023-11-09T23:25:04.117Z,10.50
2023-11-09T23:27:31.043Z,9.37
2023-11-09T23:30:00.761Z,10.57
2023-11-09T23:32:27.726Z,5.60
2023-11-09T23:34:54.704Z,4.83
2023-11-09T23:37:21.604Z,3.93
2023-11-09T23:39:48.535Z,5.80
2023-11-09T23:42:15.750Z,3.63
2023-11-09T23:44:43.091Z,5.53
2023-11-09T23:47:12.676Z,3.27
2023-11-09T23:49:39.601Z,2.87
2023-11-09T23:52:06.699Z,4.70
2023-11-09T23:54:33.679Z,4.30
2023-11-09T23:57:00.570Z,2.93
2023-11-09T23:59:27.532Z,1.37
